sensor_id;sensor_type;location;lat;lon;timestamp;P1;durP1;ratioP1;P2;durP2;ratioP2
54945;SDS011;40846;44.788;20.486;2023-07-13T00:02:22;21.80;;;8.70;;
54945;SDS011;40846;44.788;20.486;2023-07-13T00:04:49;19.58;;;7.03;;
54945;SDS011;40846;44.788;20.486;2023-07-13T00:07:15;16.88;;;6.32;;
54945;SDS011;40846;44.788;20.486;2023-07-13T00:09:45;20.35;;;7.55;;
54945;SDS011;40846;44.788;20.486;2023-07-13T00:12:24;23.40;;;7.80;;
54945;SDS011;40846;44.788;20.486;2023-07-13T00:14:51;19.25;;;7.78;;
54945;SDS011;40846;44.788;20.486;2023-07-13T00:17:17;26.38;;;7.47;;
54945;SDS011;40846;44.788;20.486;2023-07-13T00:19:43;22.55;;;8.18;;
54945;SDS011;40846;44.788;20.486;2023-07-13T00:22:09;23.13;;;7.95;;
54945;SDS011;40846;44.788;20.486;2023-07-13T00:24:35;19.95;;;7.82;;
54945;SDS011;40846;44.788;20.486;2023-07-13T00:27:04;19.27;;;8.27;;
54945;SDS011;40846;44.788;20.486;2023-07-13T00:29:30;21.10;;;7.40;;
54945;SDS011;40846;44.788;20.486;2023-07-13T00:31:58;20.38;;;7.43;;
54945;SDS011;40846;44.788;20.486;2023-07-13T00:34:24;24.85;;;8.20;;
54945;SDS011;40846;44.788;20.486;2023-07-13T00:36:51;23.38;;;7.45;;
54945;SDS011;40846;44.788;20.486;2023-07-13T00:39:17;14.32;;;7.35;;
54945;SDS011;40846;44.788;20.486;2023-07-13T00:41:43;20.67;;;7.47;;
54945;SDS011;40846;44.788;20.486;2023-07-13T00:44:19;22.38;;;7.63;;
54945;SDS011;40846;44.788;20.486;2023-07-13T00:46:46;23.55;;;7.18;;
54945;SDS011;40846;44.788;20.486;2023-07-13T00:49:13;17.05;;;6.75;;
54945;SDS011;40846;44.788;20.486;2023-07-13T00:54:10;18.73;;;6.68;;
54945;SDS011;40846;44.788;20.486;2023-07-13T00:56:37;15.82;;;6.65;;
54945;SDS011;40846;44.788;20.486;2023-07-13T00:59:03;28.00;;;8.25;;
54945;SDS011;40846;44.788;20.486;2023-07-13T01:01:31;19.10;;;7.65;;
54945;SDS011;40846;44.788;20.486;2023-07-13T01:03:57;23.45;;;8.02;;
54945;SDS011;40846;44.788;20.486;2023-07-13T01:06:23;28.67;;;8.10;;
54945;SDS011;40846;44.788;20.486;2023-07-13T01:08:49;26.50;;;8.25;;
54945;SDS011;40846;44.788;20.486;2023-07-13T01:11:20;17.50;;;7.93;;
54945;SDS011;40846;44.788;20.486;2023-07-13T01:13:47;17.77;;;7.72;;
54945;SDS011;40846;44.788;20.486;2023-07-13T01:16:17;26.13;;;7.53;;
54945;SDS011;40846;44.788;20.486;2023-07-13T01:18:44;13.57;;;7.63;;
54945;SDS011;40846;44.788;20.486;2023-07-13T01:21:11;22.83;;;7.95;;
54945;SDS011;40846;44.788;20.486;2023-07-13T01:23:37;18.38;;;8.30;;
54945;SDS011;40846;44.788;20.486;2023-07-13T01:26:03;23.98;;;7.43;;
54945;SDS011;40846;44.788;20.486;2023-07-13T01:28:29;18.17;;;7.80;;
54945;SDS011;40846;44.788;20.486;2023-07-13T01:30:56;16.30;;;7.20;;
54945;SDS011;40846;44.788;20.486;2023-07-13T01:33:22;16.15;;;8.18;;
54945;SDS011;40846;44.788;20.486;2023-07-13T01:35:49;21.65;;;7.40;;
54945;SDS011;40846;44.788;20.486;2023-07-13T01:38:15;31.30;;;7.15;;
54945;SDS011;40846;44.788;20.486;2023-07-13T01:40:42;15.95;;;7.32;;
54945;SDS011;40846;44.788;20.486;2023-07-13T01:43:08;25.30;;;7.70;;
54945;SDS011;40846;44.788;20.486;2023-07-13T01:45:34;19.40;;;7.68;;
54945;SDS011;40846;44.788;20.486;2023-07-13T01:48:00;19.17;;;7.18;;
54945;SDS011;40846;44.788;20.486;2023-07-13T01:50:26;12.82;;;6.75;;
54945;SDS011;40846;44.788;20.486;2023-07-13T01:52:52;17.45;;;8.07;;
54945;SDS011;40846;44.788;20.486;2023-07-13T01:55:19;18.20;;;6.97;;
54945;SDS011;40846;44.788;20.486;2023-07-13T01:57:45;18.30;;;7.50;;
54945;SDS011;40846;44.788;20.486;2023-07-13T02:00:13;18.65;;;7.43;;
54945;SDS011;40846;44.788;20.486;2023-07-13T02:02:39;20.00;;;7.32;;
54945;SDS011;40846;44.788;20.486;2023-07-13T02:05:05;18.95;;;8.43;;
54945;SDS011;40846;44.788;20.486;2023-07-13T02:07:31;21.23;;;7.43;;
54945;SDS011;40846;44.788;20.486;2023-07-13T02:09:58;19.50;;;7.60;;
54945;SDS011;40846;44.788;20.486;2023-07-13T02:12:24;21.20;;;8.32;;
54945;SDS011;40846;44.788;20.486;2023-07-13T02:14:50;16.95;;;7.13;;
54945;SDS011;40846;44.788;20.486;2023-07-13T02:17:16;17.42;;;7.80;;
54945;SDS011;40846;44.788;20.486;2023-07-13T02:19:42;22.33;;;6.47;;
54945;SDS011;40846;44.788;20.486;2023-07-13T02:22:08;18.30;;;7.40;;
54945;SDS011;40846;44.788;20.486;2023-07-13T02:24:34;15.23;;;7.55;;
54945;SDS011;40846;44.788;20.486;2023-07-13T02:27:00;17.30;;;7.93;;
54945;SDS011;40846;44.788;20.486;2023-07-13T02:29:26;25.40;;;7.32;;
54945;SDS011;40846;44.788;20.486;2023-07-13T02:31:52;20.48;;;7.75;;
54945;SDS011;40846;44.788;20.486;2023-07-13T02:34:18;15.23;;;7.82;;
54945;SDS011;40846;44.788;20.486;2023-07-13T02:36:44;17.83;;;6.88;;
54945;SDS011;40846;44.788;20.486;2023-07-13T02:39:11;19.52;;;7.57;;
54945;SDS011;40846;44.788;20.486;2023-07-13T02:41:37;17.52;;;7.07;;
54945;SDS011;40846;44.788;20.486;2023-07-13T02:44:03;12.98;;;6.88;;
54945;SDS011;40846;44.788;20.486;2023-07-13T02:46:30;18.05;;;7.43;;
54945;SDS011;40846;44.788;20.486;2023-07-13T02:48:56;13.82;;;5.75;;
54945;SDS011;40846;44.788;20.486;2023-07-13T02:51:22;17.25;;;7.15;;
54945;SDS011;40846;44.788;20.486;2023-07-13T02:53:48;17.92;;;7.03;;
54945;SDS011;40846;44.788;20.486;2023-07-13T02:56:14;19.17;;;7.32;;
54945;SDS011;40846;44.788;20.486;2023-07-13T02:58:40;12.93;;;6.53;;
54945;SDS011;40846;44.788;20.486;2023-07-13T03:01:10;10.75;;;6.65;;
54945;SDS011;40846;44.788;20.486;2023-07-13T03:03:37;15.38;;;7.07;;
54945;SDS011;40846;44.788;20.486;2023-07-13T03:06:04;19.42;;;8.13;;
54945;SDS011;40846;44.788;20.486;2023-07-13T03:08:32;24.50;;;6.88;;
54945;SDS011;40846;44.788;20.486;2023-07-13T03:11:00;26.30;;;7.18;;
54945;SDS011;40846;44.788;20.486;2023-07-13T03:13:26;19.13;;;7.43;;
54945;SDS011;40846;44.788;20.486;2023-07-13T03:15:52;18.48;;;6.68;;
54945;SDS011;40846;44.788;20.486;2023-07-13T03:18:18;23.38;;;7.07;;
54945;SDS011;40846;44.788;20.486;2023-07-13T03:20:44;20.98;;;6.82;;
54945;SDS011;40846;44.788;20.486;2023-07-13T03:23:10;23.95;;;6.93;;
54945;SDS011;40846;44.788;20.486;2023-07-13T03:25:36;25.30;;;7.72;;
54945;SDS011;40846;44.788;20.486;2023-07-13T03:28:02;19.15;;;7.60;;
54945;SDS011;40846;44.788;20.486;2023-07-13T03:30:29;10.60;;;6.35;;
54945;SDS011;40846;44.788;20.486;2023-07-13T03:32:55;16.23;;;6.47;;
54945;SDS011;40846;44.788;20.486;2023-07-13T03:35:21;13.43;;;6.68;;
54945;SDS011;40846;44.788;20.486;2023-07-13T03:37:47;19.65;;;7.35;;
54945;SDS011;40846;44.788;20.486;2023-07-13T03:40:13;16.98;;;7.53;;
54945;SDS011;40846;44.788;20.486;2023-07-13T03:42:39;14.20;;;6.82;;
54945;SDS011;40846;44.788;20.486;2023-07-13T03:45:05;20.58;;;7.38;;
54945;SDS011;40846;44.788;20.486;2023-07-13T03:47:32;21.88;;;8.00;;
54945;SDS011;40846;44.788;20.486;2023-07-13T03:49:58;21.70;;;7.72;;
54945;SDS011;40846;44.788;20.486;2023-07-13T03:52:24;15.43;;;6.50;;
54945;SDS011;40846;44.788;20.486;2023-07-13T03:54:50;16.88;;;7.10;;
54945;SDS011;40846;44.788;20.486;2023-07-13T03:57:16;18.48;;;6.75;;
54945;SDS011;40846;44.788;20.486;2023-07-13T03:59:42;17.83;;;6.45;;
54945;SDS011;40846;44.788;20.486;2023-07-13T04:02:08;20.63;;;7.68;;
54945;SDS011;40846;44.788;20.486;2023-07-13T04:04:34;15.38;;;6.65;;
54945;SDS011;40846;44.788;20.486;2023-07-13T04:07:00;24.77;;;6.20;;
54945;SDS011;40846;44.788;20.486;2023-07-13T04:09:26;17.77;;;6.88;;
54945;SDS011;40846;44.788;20.486;2023-07-13T04:11:52;13.80;;;6.40;;
54945;SDS011;40846;44.788;20.486;2023-07-13T04:14:18;17.63;;;6.10;;
54945;SDS011;40846;44.788;20.486;2023-07-13T04:16:44;19.02;;;6.10;;
54945;SDS011;40846;44.788;20.486;2023-07-13T04:19:10;16.73;;;6.35;;
54945;SDS011;40846;44.788;20.486;2023-07-13T04:21:36;13.00;;;5.45;;
54945;SDS011;40846;44.788;20.486;2023-07-13T04:24:03;15.23;;;5.90;;
54945;SDS011;40846;44.788;20.486;2023-07-13T04:26:29;15.43;;;5.85;;
54945;SDS011;40846;44.788;20.486;2023-07-13T04:28:55;13.57;;;6.05;;
54945;SDS011;40846;44.788;20.486;2023-07-13T04:31:22;20.90;;;6.28;;
54945;SDS011;40846;44.788;20.486;2023-07-13T04:33:48;14.93;;;6.35;;
54945;SDS011;40846;44.788;20.486;2023-07-13T04:36:15;10.73;;;5.60;;
54945;SDS011;40846;44.788;20.486;2023-07-13T04:38:42;16.65;;;5.82;;
54945;SDS011;40846;44.788;20.486;2023-07-13T04:41:08;15.68;;;5.57;;
54945;SDS011;40846;44.788;20.486;2023-07-13T04:43:35;14.60;;;6.03;;
54945;SDS011;40846;44.788;20.486;2023-07-13T04:46:05;13.73;;;5.13;;
54945;SDS011;40846;44.788;20.486;2023-07-13T04:48:32;20.27;;;5.90;;
54945;SDS011;40846;44.788;20.486;2023-07-13T04:50:59;8.52;;;5.03;;
54945;SDS011;40846;44.788;20.486;2023-07-13T04:53:25;15.90;;;6.07;;
54945;SDS011;40846;44.788;20.486;2023-07-13T04:55:51;11.98;;;5.05;;
54945;SDS011;40846;44.788;20.486;2023-07-13T04:58:18;12.27;;;5.07;;
54945;SDS011;40846;44.788;20.486;2023-07-13T05:00:44;17.55;;;5.10;;
54945;SDS011;40846;44.788;20.486;2023-07-13T05:03:10;9.65;;;5.65;;
54945;SDS011;40846;44.788;20.486;2023-07-13T05:05:36;9.90;;;5.13;;
54945;SDS011;40846;44.788;20.486;2023-07-13T05:08:02;13.32;;;6.20;;
54945;SDS011;40846;44.788;20.486;2023-07-13T05:10:28;18.27;;;5.53;;
54945;SDS011;40846;44.788;20.486;2023-07-13T05:12:54;10.73;;;5.38;;
54945;SDS011;40846;44.788;20.486;2023-07-13T05:15:21;17.05;;;5.88;;
54945;SDS011;40846;44.788;20.486;2023-07-13T05:17:47;12.75;;;6.15;;
54945;SDS011;40846;44.788;20.486;2023-07-13T05:20:13;17.58;;;6.05;;
54945;SDS011;40846;44.788;20.486;2023-07-13T05:22:39;14.73;;;5.45;;
54945;SDS011;40846;44.788;20.486;2023-07-13T05:25:05;18.45;;;5.60;;
54945;SDS011;40846;44.788;20.486;2023-07-13T05:27:32;11.90;;;5.35;;
54945;SDS011;40846;44.788;20.486;2023-07-13T05:29:59;8.45;;;4.80;;
54945;SDS011;40846;44.788;20.486;2023-07-13T05:32:25;14.00;;;5.28;;
54945;SDS011;40846;44.788;20.486;2023-07-13T05:34:51;17.98;;;6.38;;
54945;SDS011;40846;44.788;20.486;2023-07-13T05:37:17;11.95;;;5.47;;
54945;SDS011;40846;44.788;20.486;2023-07-13T05:39:43;11.73;;;4.65;;
54945;SDS011;40846;44.788;20.486;2023-07-13T05:42:10;14.38;;;5.28;;
54945;SDS011;40846;44.788;20.486;2023-07-13T05:44:36;14.40;;;5.40;;
54945;SDS011;40846;44.788;20.486;2023-07-13T05:47:02;17.77;;;5.93;;
54945;SDS011;40846;44.788;20.486;2023-07-13T05:49:29;15.18;;;5.60;;
54945;SDS011;40846;44.788;20.486;2023-07-13T05:51:55;15.75;;;6.13;;
54945;SDS011;40846;44.788;20.486;2023-07-13T05:54:22;12.35;;;5.85;;
54945;SDS011;40846;44.788;20.486;2023-07-13T05:56:48;10.55;;;5.80;;
54945;SDS011;40846;44.788;20.486;2023-07-13T05:59:14;10.20;;;5.35;;
54945;SDS011;40846;44.788;20.486;2023-07-13T06:01:40;12.27;;;5.50;;
54945;SDS011;40846;44.788;20.486;2023-07-13T06:04:07;13.93;;;4.72;;
54945;SDS011;40846;44.788;20.486;2023-07-13T06:06:33;22.83;;;5.75;;
54945;SDS011;40846;44.788;20.486;2023-07-13T06:08:59;13.77;;;5.40;;
54945;SDS011;40846;44.788;20.486;2023-07-13T06:11:25;13.13;;;5.28;;
54945;SDS011;40846;44.788;20.486;2023-07-13T06:13:52;9.57;;;4.97;;
54945;SDS011;40846;44.788;20.486;2023-07-13T06:16:19;22.55;;;5.28;;
54945;SDS011;40846;44.788;20.486;2023-07-13T06:18:45;13.48;;;5.22;;
54945;SDS011;40846;44.788;20.486;2023-07-13T06:21:17;13.65;;;5.68;;
54945;SDS011;40846;44.788;20.486;2023-07-13T06:23:44;11.05;;;4.93;;
54945;SDS011;40846;44.788;20.486;2023-07-13T06:26:10;20.35;;;5.10;;
54945;SDS011;40846;44.788;20.486;2023-07-13T06:28:37;14.48;;;5.18;;
54945;SDS011;40846;44.788;20.486;2023-07-13T06:31:05;11.68;;;5.07;;
54945;SDS011;40846;44.788;20.486;2023-07-13T06:33:31;11.80;;;5.18;;
54945;SDS011;40846;44.788;20.486;2023-07-13T06:35:58;16.35;;;5.18;;
54945;SDS011;40846;44.788;20.486;2023-07-13T06:38:24;11.07;;;4.95;;
54945;SDS011;40846;44.788;20.486;2023-07-13T06:40:50;11.00;;;5.38;;
54945;SDS011;40846;44.788;20.486;2023-07-13T06:43:16;10.70;;;5.40;;
54945;SDS011;40846;44.788;20.486;2023-07-13T06:45:44;18.90;;;6.97;;
54945;SDS011;40846;44.788;20.486;2023-07-13T06:48:14;9.20;;;5.20;;
54945;SDS011;40846;44.788;20.486;2023-07-13T06:50:41;25.90;;;6.47;;
54945;SDS011;40846;44.788;20.486;2023-07-13T06:53:07;18.92;;;6.07;;
54945;SDS011;40846;44.788;20.486;2023-07-13T06:55:33;23.83;;;5.63;;
54945;SDS011;40846;44.788;20.486;2023-07-13T06:57:59;10.73;;;5.22;;
54945;SDS011;40846;44.788;20.486;2023-07-13T07:00:25;12.95;;;4.47;;
54945;SDS011;40846;44.788;20.486;2023-07-13T07:02:51;13.55;;;4.97;;
54945;SDS011;40846;44.788;20.486;2023-07-13T07:05:17;14.02;;;5.13;;
54945;SDS011;40846;44.788;20.486;2023-07-13T07:07:47;14.65;;;6.43;;
54945;SDS011;40846;44.788;20.486;2023-07-13T07:10:13;18.80;;;5.40;;
54945;SDS011;40846;44.788;20.486;2023-07-13T07:12:39;12.88;;;5.22;;
54945;SDS011;40846;44.788;20.486;2023-07-13T07:15:05;18.27;;;5.72;;
54945;SDS011;40846;44.788;20.486;2023-07-13T07:17:32;21.35;;;5.63;;
54945;SDS011;40846;44.788;20.486;2023-07-13T07:19:58;12.05;;;5.20;;
54945;SDS011;40846;44.788;20.486;2023-07-13T07:22:24;16.60;;;5.22;;
54945;SDS011;40846;44.788;20.486;2023-07-13T07:24:52;19.55;;;5.38;;
54945;SDS011;40846;44.788;20.486;2023-07-13T07:27:18;34.30;;;6.63;;
54945;SDS011;40846;44.788;20.486;2023-07-13T07:29:44;15.27;;;5.35;;
54945;SDS011;40846;44.788;20.486;2023-07-13T07:32:10;22.02;;;6.13;;
54945;SDS011;40846;44.788;20.486;2023-07-13T07:34:36;15.68;;;4.82;;
54945;SDS011;40846;44.788;20.486;2023-07-13T07:37:03;12.10;;;5.93;;
54945;SDS011;40846;44.788;20.486;2023-07-13T07:39:29;19.92;;;5.72;;
54945;SDS011;40846;44.788;20.486;2023-07-13T07:41:55;12.73;;;5.57;;
54945;SDS011;40846;44.788;20.486;2023-07-13T07:44:21;15.05;;;5.00;;
54945;SDS011;40846;44.788;20.486;2023-07-13T07:46:47;10.07;;;5.20;;
54945;SDS011;40846;44.788;20.486;2023-07-13T07:49:14;14.77;;;5.75;;
54945;SDS011;40846;44.788;20.486;2023-07-13T07:51:40;22.58;;;5.25;;
54945;SDS011;40846;44.788;20.486;2023-07-13T07:54:06;13.77;;;4.50;;
54945;SDS011;40846;44.788;20.486;2023-07-13T07:56:32;13.75;;;4.85;;
54945;SDS011;40846;44.788;20.486;2023-07-13T07:58:58;13.00;;;5.60;;
54945;SDS011;40846;44.788;20.486;2023-07-13T08:01:24;14.35;;;5.65;;
54945;SDS011;40846;44.788;20.486;2023-07-13T08:03:50;11.00;;;4.93;;
54945;SDS011;40846;44.788;20.486;2023-07-13T08:06:17;15.32;;;4.97;;
54945;SDS011;40846;44.788;20.486;2023-07-13T08:08:44;12.45;;;4.78;;
54945;SDS011;40846;44.788;20.486;2023-07-13T08:11:11;21.35;;;5.97;;
54945;SDS011;40846;44.788;20.486;2023-07-13T08:13:37;11.65;;;6.43;;
54945;SDS011;40846;44.788;20.486;2023-07-13T08:16:04;19.42;;;5.80;;
54945;SDS011;40846;44.788;20.486;2023-07-13T08:18:30;15.20;;;6.03;;
54945;SDS011;40846;44.788;20.486;2023-07-13T08:20:56;21.42;;;6.35;;
54945;SDS011;40846;44.788;20.486;2023-07-13T08:23:24;16.30;;;5.93;;
54945;SDS011;40846;44.788;20.486;2023-07-13T08:25:51;13.73;;;6.45;;
54945;SDS011;40846;44.788;20.486;2023-07-13T08:28:18;13.48;;;5.80;;
54945;SDS011;40846;44.788;20.486;2023-07-13T08:30:45;24.40;;;6.80;;
54945;SDS011;40846;44.788;20.486;2023-07-13T08:33:14;17.27;;;6.53;;
54945;SDS011;40846;44.788;20.486;2023-07-13T08:35:40;15.50;;;6.55;;
54945;SDS011;40846;44.788;20.486;2023-07-13T08:38:06;20.02;;;6.25;;
54945;SDS011;40846;44.788;20.486;2023-07-13T08:40:32;14.05;;;6.63;;
54945;SDS011;40846;44.788;20.486;2023-07-13T08:42:59;19.95;;;6.47;;
54945;SDS011;40846;44.788;20.486;2023-07-13T08:45:39;20.67;;;7.18;;
54945;SDS011;40846;44.788;20.486;2023-07-13T08:51:18;18.13;;;6.15;;
54945;SDS011;40846;44.788;20.486;2023-07-13T08:53:49;22.42;;;6.97;;
54945;SDS011;40846;44.788;20.486;2023-07-13T08:56:19;17.77;;;6.60;;
54945;SDS011;40846;44.788;20.486;2023-07-13T08:58:47;15.27;;;7.03;;
54945;SDS011;40846;44.788;20.486;2023-07-13T09:03:52;14.93;;;7.00;;
54945;SDS011;40846;44.788;20.486;2023-07-13T09:06:22;17.38;;;6.65;;
54945;SDS011;40846;44.788;20.486;2023-07-13T09:08:59;16.20;;;6.93;;
54945;SDS011;40846;44.788;20.486;2023-07-13T09:11:32;17.55;;;6.93;;
54945;SDS011;40846;44.788;20.486;2023-07-13T09:16:26;23.98;;;8.57;;
54945;SDS011;40846;44.788;20.486;2023-07-13T09:18:54;14.57;;;8.40;;
54945;SDS011;40846;44.788;20.486;2023-07-13T09:21:23;21.52;;;9.55;;
54945;SDS011;40846;44.788;20.486;2023-07-13T09:23:50;17.63;;;8.45;;
54945;SDS011;40846;44.788;20.486;2023-07-13T09:26:19;17.15;;;7.72;;
54945;SDS011;40846;44.788;20.486;2023-07-13T09:28:57;20.75;;;10.88;;
54945;SDS011;40846;44.788;20.486;2023-07-13T09:31:36;26.70;;;7.43;;
54945;SDS011;40846;44.788;20.486;2023-07-13T09:34:06;17.65;;;7.63;;
54945;SDS011;40846;44.788;20.486;2023-07-13T09:36:34;28.83;;;10.18;;
54945;SDS011;40846;44.788;20.486;2023-07-13T09:39:25;19.13;;;8.77;;
54945;SDS011;40846;44.788;20.486;2023-07-13T09:44:29;17.58;;;7.50;;
54945;SDS011;40846;44.788;20.486;2023-07-13T09:46:56;15.85;;;7.15;;
54945;SDS011;40846;44.788;20.486;2023-07-13T09:49:26;21.08;;;8.07;;
54945;SDS011;40846;44.788;20.486;2023-07-13T09:51:57;23.00;;;6.85;;
54945;SDS011;40846;44.788;20.486;2023-07-13T09:54:26;13.98;;;6.05;;
54945;SDS011;40846;44.788;20.486;2023-07-13T09:56:55;15.13;;;5.68;;
54945;SDS011;40846;44.788;20.486;2023-07-13T09:59:22;22.55;;;7.18;;
54945;SDS011;40846;44.788;20.486;2023-07-13T10:01:49;19.45;;;6.85;;
54945;SDS011;40846;44.788;20.486;2023-07-13T10:04:19;10.75;;;6.60;;
54945;SDS011;40846;44.788;20.486;2023-07-13T10:06:45;14.98;;;6.68;;
54945;SDS011;40846;44.788;20.486;2023-07-13T10:09:16;13.43;;;6.93;;
54945;SDS011;40846;44.788;20.486;2023-07-13T10:11:44;12.55;;;5.75;;
54945;SDS011;40846;44.788;20.486;2023-07-13T10:16:36;15.52;;;5.93;;
54945;SDS011;40846;44.788;20.486;2023-07-13T10:19:06;13.60;;;6.32;;
54945;SDS011;40846;44.788;20.486;2023-07-13T10:21:38;9.35;;;5.57;;
54945;SDS011;40846;44.788;20.486;2023-07-13T10:24:15;17.85;;;5.88;;
54945;SDS011;40846;44.788;20.486;2023-07-13T10:26:46;14.00;;;5.90;;
54945;SDS011;40846;44.788;20.486;2023-07-13T10:29:14;15.43;;;6.00;;
54945;SDS011;40846;44.788;20.486;2023-07-13T10:31:41;13.48;;;6.25;;
54945;SDS011;40846;44.788;20.486;2023-07-13T10:34:11;15.13;;;5.60;;
54945;SDS011;40846;44.788;20.486;2023-07-13T10:36:42;15.53;;;6.73;;
54945;SDS011;40846;44.788;20.486;2023-07-13T10:39:10;13.68;;;6.45;;
54945;SDS011;40846;44.788;20.486;2023-07-13T10:41:40;21.45;;;6.07;;
54945;SDS011;40846;44.788;20.486;2023-07-13T10:44:09;13.50;;;6.93;;
54945;SDS011;40846;44.788;20.486;2023-07-13T10:46:39;10.18;;;5.18;;
54945;SDS011;40846;44.788;20.486;2023-07-13T10:49:05;11.07;;;5.72;;
54945;SDS011;40846;44.788;20.486;2023-07-13T10:51:33;14.40;;;6.05;;
54945;SDS011;40846;44.788;20.486;2023-07-13T10:56:35;17.38;;;6.00;;
54945;SDS011;40846;44.788;20.486;2023-07-13T10:59:02;18.05;;;6.10;;
54945;SDS011;40846;44.788;20.486;2023-07-13T11:01:39;13.30;;;5.72;;
54945;SDS011;40846;44.788;20.486;2023-07-13T11:04:05;14.55;;;5.85;;
54945;SDS011;40846;44.788;20.486;2023-07-13T11:06:36;16.23;;;6.38;;
54945;SDS011;40846;44.788;20.486;2023-07-13T11:09:49;10.23;;;6.20;;
54945;SDS011;40846;44.788;20.486;2023-07-13T11:11:50;23.80;;;6.00;;
54945;SDS011;40846;44.788;20.486;2023-07-13T11:14:27;12.10;;;5.95;;
54945;SDS011;40846;44.788;20.486;2023-07-13T11:16:54;16.88;;;6.25;;
54945;SDS011;40846;44.788;20.486;2023-07-13T11:24:50;20.40;;;6.13;;
54945;SDS011;40846;44.788;20.486;2023-07-13T11:27:36;13.45;;;6.32;;
54945;SDS011;40846;44.788;20.486;2023-07-13T11:32:45;11.65;;;5.93;;
54945;SDS011;40846;44.788;20.486;2023-07-13T11:35:17;12.18;;;5.40;;
54945;SDS011;40846;44.788;20.486;2023-07-13T11:37:45;11.68;;;5.50;;
54945;SDS011;40846;44.788;20.486;2023-07-13T11:40:15;13.88;;;6.35;;
54945;SDS011;40846;44.788;20.486;2023-07-13T11:42:41;12.73;;;6.05;;
54945;SDS011;40846;44.788;20.486;2023-07-13T11:45:20;10.68;;;5.45;;
54945;SDS011;40846;44.788;20.486;2023-07-13T11:47:50;10.88;;;5.75;;
54945;SDS011;40846;44.788;20.486;2023-07-13T11:50:24;19.73;;;5.60;;
54945;SDS011;40846;44.788;20.486;2023-07-13T11:52:50;18.40;;;5.25;;
54945;SDS011;40846;44.788;20.486;2023-07-13T11:55:19;15.95;;;5.38;;
54945;SDS011;40846;44.788;20.486;2023-07-13T11:57:53;15.63;;;6.30;;
54945;SDS011;40846;44.788;20.486;2023-07-13T12:00:23;8.55;;;5.65;;
54945;SDS011;40846;44.788;20.486;2023-07-13T12:02:52;14.20;;;6.13;;
54945;SDS011;40846;44.788;20.486;2023-07-13T12:05:19;12.55;;;5.85;;
54945;SDS011;40846;44.788;20.486;2023-07-13T12:07:50;21.08;;;5.63;;
54945;SDS011;40846;44.788;20.486;2023-07-13T12:10:23;17.45;;;5.95;;
54945;SDS011;40846;44.788;20.486;2023-07-13T12:12:54;17.27;;;6.50;;
54945;SDS011;40846;44.788;20.486;2023-07-13T12:15:21;18.33;;;6.45;;
54945;SDS011;40846;44.788;20.486;2023-07-13T12:17:47;14.90;;;5.78;;
54945;SDS011;40846;44.788;20.486;2023-07-13T12:20:21;17.23;;;5.72;;
54945;SDS011;40846;44.788;20.486;2023-07-13T12:22:49;24.63;;;6.35;;
54945;SDS011;40846;44.788;20.486;2023-07-13T12:25:15;16.38;;;5.65;;
54945;SDS011;40846;44.788;20.486;2023-07-13T12:27:42;18.13;;;5.80;;
54945;SDS011;40846;44.788;20.486;2023-07-13T12:30:28;18.85;;;7.38;;
54945;SDS011;40846;44.788;20.486;2023-07-13T12:33:23;13.20;;;5.75;;
54945;SDS011;40846;44.788;20.486;2023-07-13T12:35:47;11.20;;;5.60;;
54945;SDS011;40846;44.788;20.486;2023-07-13T12:38:15;10.07;;;5.50;;
54945;SDS011;40846;44.788;20.486;2023-07-13T12:40:42;12.55;;;5.78;;
54945;SDS011;40846;44.788;20.486;2023-07-13T12:43:14;11.90;;;5.13;;
54945;SDS011;40846;44.788;20.486;2023-07-13T12:48:26;16.17;;;6.15;;
54945;SDS011;40846;44.788;20.486;2023-07-13T12:50:53;11.02;;;6.00;;
54945;SDS011;40846;44.788;20.486;2023-07-13T12:53:21;11.38;;;6.35;;
54945;SDS011;40846;44.788;20.486;2023-07-13T12:55:55;22.80;;;6.45;;
54945;SDS011;40846;44.788;20.486;2023-07-13T12:58:40;10.25;;;5.68;;
54945;SDS011;40846;44.788;20.486;2023-07-13T13:01:09;14.88;;;5.43;;
54945;SDS011;40846;44.788;20.486;2023-07-13T13:03:45;12.77;;;6.00;;
54945;SDS011;40846;44.788;20.486;2023-07-13T13:06:21;14.70;;;6.45;;
54945;SDS011;40846;44.788;20.486;2023-07-13T13:08:52;10.52;;;5.45;;
54945;SDS011;40846;44.788;20.486;2023-07-13T13:11:19;20.75;;;5.35;;
54945;SDS011;40846;44.788;20.486;2023-07-13T13:13:45;15.75;;;6.05;;
54945;SDS011;40846;44.788;20.486;2023-07-13T13:18:39;19.25;;;7.53;;
54945;SDS011;40846;44.788;20.486;2023-07-13T13:21:05;13.25;;;5.88;;
54945;SDS011;40846;44.788;20.486;2023-07-13T13:23:32;25.38;;;5.68;;
54945;SDS011;40846;44.788;20.486;2023-07-13T13:25:58;12.40;;;5.55;;
54945;SDS011;40846;44.788;20.486;2023-07-13T13:28:24;9.35;;;5.25;;
54945;SDS011;40846;44.788;20.486;2023-07-13T13:30:51;14.18;;;7.32;;
54945;SDS011;40846;44.788;20.486;2023-07-13T13:33:18;19.15;;;7.15;;
54945;SDS011;40846;44.788;20.486;2023-07-13T13:35:44;15.45;;;5.22;;
54945;SDS011;40846;44.788;20.486;2023-07-13T13:38:10;10.75;;;6.07;;
54945;SDS011;40846;44.788;20.486;2023-07-13T13:40:37;23.88;;;6.60;;
54945;SDS011;40846;44.788;20.486;2023-07-13T13:43:08;16.02;;;6.82;;
54945;SDS011;40846;44.788;20.486;2023-07-13T13:45:35;15.05;;;7.03;;
54945;SDS011;40846;44.788;20.486;2023-07-13T13:48:01;20.90;;;6.75;;
54945;SDS011;40846;44.788;20.486;2023-07-13T13:50:27;22.42;;;7.15;;
54945;SDS011;40846;44.788;20.486;2023-07-13T13:52:54;20.20;;;7.32;;
54945;SDS011;40846;44.788;20.486;2023-07-13T13:55:21;15.95;;;7.40;;
54945;SDS011;40846;44.788;20.486;2023-07-13T13:57:49;20.60;;;7.05;;
54945;SDS011;40846;44.788;20.486;2023-07-13T14:00:16;20.60;;;6.90;;
54945;SDS011;40846;44.788;20.486;2023-07-13T14:02:45;23.00;;;7.57;;
54945;SDS011;40846;44.788;20.486;2023-07-13T14:05:13;27.03;;;7.17;;
54945;SDS011;40846;44.788;20.486;2023-07-13T14:07:40;24.80;;;7.00;;
54945;SDS011;40846;44.788;20.486;2023-07-13T14:10:14;22.42;;;7.10;;
54945;SDS011;40846;44.788;20.486;2023-07-13T14:15:08;21.95;;;7.35;;
54945;SDS011;40846;44.788;20.486;2023-07-13T14:17:35;21.60;;;7.65;;
54945;SDS011;40846;44.788;20.486;2023-07-13T14:20:01;19.98;;;7.53;;
54945;SDS011;40846;44.788;20.486;2023-07-13T14:22:29;19.35;;;7.57;;
54945;SDS011;40846;44.788;20.486;2023-07-13T14:24:55;15.95;;;6.60;;
54945;SDS011;40846;44.788;20.486;2023-07-13T14:27:23;28.95;;;6.68;;
54945;SDS011;40846;44.788;20.486;2023-07-13T14:29:50;24.67;;;7.28;;
54945;SDS011;40846;44.788;20.486;2023-07-13T14:32:16;24.83;;;6.10;;
54945;SDS011;40846;44.788;20.486;2023-07-13T14:34:42;18.30;;;7.07;;
54945;SDS011;40846;44.788;20.486;2023-07-13T14:37:12;19.85;;;7.18;;
54945;SDS011;40846;44.788;20.486;2023-07-13T14:39:39;20.30;;;6.60;;
54945;SDS011;40846;44.788;20.486;2023-07-13T14:42:08;29.20;;;8.02;;
54945;SDS011;40846;44.788;20.486;2023-07-13T14:44:34;27.88;;;7.57;;
54945;SDS011;40846;44.788;20.486;2023-07-13T14:47:01;23.98;;;6.90;;
54945;SDS011;40846;44.788;20.486;2023-07-13T14:49:32;16.50;;;6.82;;
54945;SDS011;40846;44.788;20.486;2023-07-13T14:52:09;12.40;;;6.53;;
54945;SDS011;40846;44.788;20.486;2023-07-13T14:54:36;24.52;;;6.85;;
54945;SDS011;40846;44.788;20.486;2023-07-13T14:57:08;24.30;;;7.30;;
54945;SDS011;40846;44.788;20.486;2023-07-13T14:59:34;18.70;;;6.97;;